createdAt,value
2022-12-04T00:00:17.934Z,101174.30
2022-12-04T00:03:10.083Z,101169.55
2022-12-04T00:05:42.366Z,101170.84
2022-12-04T00:08:14.657Z,101167.00
2022-12-04T00:10:46.960Z,101166.21
2022-12-04T00:13:19.770Z,101163.53
2022-12-04T00:15:52.003Z,101166.94
2022-12-04T00:18:24.206Z,101177.91
2022-12-04T00:20:56.429Z,101184.45
2022-12-04T00:23:28.671Z,101186.09
2022-12-04T00:26:04.601Z,101190.73
2022-12-04T00:28:37.668Z,101184.50
2022-12-04T00:31:12.534Z,101183.14
2022-12-04T00:33:44.717Z,101178.55
2022-12-04T00:36:20.160Z,101179.45
2022-12-04T00:38:52.669Z,101175.89
2022-12-04T00:41:26.929Z,101174.39
2022-12-04T00:43:59.531Z,101168.19
2022-12-04T00:46:32.315Z,101159.61
2022-12-04T00:49:04.848Z,101151.84
2022-12-04T00:51:36.935Z,101158.14
2022-12-04T00:54:09.230Z,101160.36
2022-12-04T00:56:41.709Z,101159.01
2022-12-04T00:59:14.155Z,101148.55
2022-12-04T01:01:46.203Z,101148.10
2022-12-04T01:04:18.292Z,101149.64
2022-12-04T01:06:50.429Z,101154.70
2022-12-04T01:09:22.606Z,101155.71
2022-12-04T01:11:54.662Z,101159.80
2022-12-04T01:14:26.860Z,101171.61
2022-12-04T01:16:59.496Z,101175.74
2022-12-04T01:19:31.731Z,101177.22
2022-12-04T01:22:04.360Z,101174.43
2022-12-04T01:24:36.578Z,101170.23
2022-12-04T01:27:08.774Z,101174.54
2022-12-04T01:29:40.891Z,101166.86
2022-12-04T01:32:12.957Z,101159.08
2022-12-04T01:34:45.176Z,101159.10
2022-12-04T01:37:17.757Z,101149.52
2022-12-04T01:39:50.228Z,101145.61
2022-12-04T01:42:22.497Z,101150.09
2022-12-04T01:45:25.441Z,101150.36
2022-12-04T01:48:00.244Z,101140.58
2022-12-04T01:50:32.580Z,101143.25
2022-12-04T01:53:05.193Z,101143.33
2022-12-04T01:55:37.596Z,101147.66
2022-12-04T01:58:10.735Z,101142.05
2022-12-04T02:00:43.049Z,101142.48
2022-12-04T02:03:16.319Z,101132.59
2022-12-04T02:05:48.492Z,101130.02
2022-12-04T02:08:20.624Z,101137.30
2022-12-04T02:11:02.815Z,101148.18
2022-12-04T02:13:48.345Z,101153.86
2022-12-04T02:16:21.163Z,101154.35
2022-12-04T02:19:03.665Z,101149.30
2022-12-04T02:21:40.312Z,101152.41
2022-12-04T02:24:27.994Z,101151.22
2022-12-04T02:27:04.002Z,101152.52
2022-12-04T02:29:42.518Z,101155.41
2022-12-04T02:32:22.522Z,101158.86
2022-12-04T02:35:00.425Z,101154.42
2022-12-04T02:37:37.203Z,101152.77
2022-12-04T02:40:16.228Z,101161.23
2022-12-04T02:42:54.874Z,101168.66
2022-12-04T02:45:32.458Z,101157.88
2022-12-04T02:48:07.435Z,101155.25
2022-12-04T02:50:41.749Z,101158.10
2022-12-04T02:53:17.858Z,101153.64
2022-12-04T02:55:54.660Z,101150.16
2022-12-04T02:58:31.563Z,101142.33
2022-12-04T03:01:19.555Z,101140.19
2022-12-04T03:03:56.452Z,101140.17
2022-12-04T03:06:32.311Z,101137.27
2022-12-04T03:09:11.650Z,101141.36
2022-12-04T03:11:51.164Z,101136.84
2022-12-04T03:14:27.119Z,101124.92
2022-12-04T03:17:03.984Z,101125.88
2022-12-04T03:19:42.775Z,101123.45
2022-12-04T03:22:19.394Z,101123.51
2022-12-04T03:24:55.044Z,101122.83
2022-12-04T03:27:35.660Z,101116.80
2022-12-04T03:30:11.271Z,101118.07
2022-12-04T03:32:50.596Z,101122.48
2022-12-04T03:35:28.396Z,101123.57
2022-12-04T03:38:04.455Z,101123.15
2022-12-04T03:40:40.312Z,101118.52
2022-12-04T03:43:18.341Z,101117.25
2022-12-04T03:45:57.303Z,101115.85
2022-12-04T03:48:37.834Z,101112.88
2022-12-04T03:51:19.167Z,101116.50
2022-12-04T03:53:56.381Z,101117.82
2022-12-04T03:56:31.472Z,101123.83
2022-12-04T03:59:09.571Z,101124.23
2022-12-04T04:01:46.459Z,101122.95
2022-12-04T04:04:24.123Z,101119.05
2022-12-04T04:07:03.514Z,101111.29
2022-12-04T04:09:40.388Z,101111.23
2022-12-04T04:12:17.860Z,101113.70
2022-12-04T04:15:12.020Z,101107.48
2022-12-04T04:18:04.472Z,101101.53
2022-12-04T04:20:59.002Z,101104.52
2022-12-04T04:23:52.060Z,101108.77
2022-12-04T04:26:27.433Z,101118.72
2022-12-04T04:28:59.572Z,101117.41
2022-12-04T04:31:38.778Z,101116.11
2022-12-04T04:34:25.806Z,101108.64
2022-12-04T04:37:05.619Z,101107.45
2022-12-04T04:39:41.651Z,101108.95
2022-12-04T04:42:20.860Z,101104.92
2022-12-04T04:44:58.993Z,101102.30
2022-12-04T04:47:38.508Z,101106.11
2022-12-04T04:50:13.858Z,101111.02
2022-12-04T04:52:46.946Z,101114.81
2022-12-04T04:55:20.953Z,101119.30
2022-12-04T04:57:53.390Z,101115.98
2022-12-04T05:00:25.877Z,101116.80
2022-12-04T05:02:58.481Z,101108.60
2022-12-04T05:05:30.725Z,101117.04
2022-12-04T05:08:02.962Z,101119.27
2022-12-04T05:10:35.275Z,101118.45
2022-12-04T05:13:07.384Z,101117.21
2022-12-04T05:15:39.583Z,101112.25
2022-12-04T05:18:12.568Z,101116.52
2022-12-04T05:20:44.733Z,101123.48
2022-12-04T05:23:16.903Z,101119.80
2022-12-04T05:25:49.071Z,101113.89
2022-12-04T05:28:21.264Z,101112.73
2022-12-04T05:30:59.404Z,101114.49
2022-12-04T05:33:31.751Z,101115.97
2022-12-04T05:36:06.420Z,101117.14
2022-12-04T05:38:38.875Z,101117.48
2022-12-04T05:41:10.937Z,101123.27
2022-12-04T05:43:43.411Z,101126.76
2022-12-04T05:46:15.543Z,101128.01
2022-12-04T05:48:47.708Z,101127.90
2022-12-04T05:51:19.891Z,101132.86
2022-12-04T05:53:54.477Z,101130.17
2022-12-04T05:56:26.684Z,101131.05
2022-12-04T05:58:59.162Z,101129.69
2022-12-04T06:01:31.250Z,101128.54
2022-12-04T06:04:03.360Z,101130.66
2022-12-04T06:06:35.492Z,101134.04
2022-12-04T06:09:09.344Z,101139.20
2022-12-04T06:11:43.790Z,101137.33
2022-12-04T06:14:17.495Z,101139.52
2022-12-04T06:16:49.773Z,101142.51
2022-12-04T06:19:23.804Z,101142.66
2022-12-04T06:21:56.024Z,101138.33
2022-12-04T06:24:28.420Z,101139.44
2022-12-04T06:27:26.703Z,101135.16
2022-12-04T06:29:54.160Z,101133.46
2022-12-04T06:32:26.661Z,101133.89
2022-12-04T06:34:58.777Z,101140.62
2022-12-04T06:37:30.972Z,101141.42
2022-12-04T06:40:03.394Z,101142.27
2022-12-04T06:42:35.561Z,101143.92
2022-12-04T06:45:09.479Z,101143.20
2022-12-04T06:47:41.589Z,101147.70
2022-12-04T06:50:15.964Z,101142.77
2022-12-04T06:52:48.000Z,101146.13
2022-12-04T06:55:20.271Z,101148.05
2022-12-04T06:57:52.352Z,101156.89
2022-12-04T07:00:24.761Z,101158.02
2022-12-04T07:02:56.902Z,101160.59
2022-12-04T07:05:30.038Z,101152.63
2022-12-04T07:08:02.341Z,101150.23
2022-12-04T07:10:36.021Z,101146.59
2022-12-04T07:13:08.851Z,101149.21
2022-12-04T07:15:40.999Z,101147.77
2022-12-04T07:18:13.271Z,101146.64
2022-12-04T07:20:45.406Z,101155.05
2022-12-04T07:23:17.499Z,101159.02
2022-12-04T07:25:49.748Z,101158.79
2022-12-04T07:28:21.890Z,101157.58
2022-12-04T07:30:54.057Z,101149.45
2022-12-04T07:33:26.249Z,101148.13
2022-12-04T07:36:02.790Z,101143.32
2022-12-04T07:38:36.168Z,101141.47
2022-12-04T07:41:09.564Z,101149.38
2022-12-04T07:43:42.295Z,101144.63
2022-12-04T07:46:16.069Z,101139.61
2022-12-04T07:48:48.397Z,101140.66
2022-12-04T07:51:22.724Z,101146.52
2022-12-04T07:54:02.012Z,101161.16
2022-12-04T07:56:35.942Z,101158.64
2022-12-04T07:59:08.108Z,101157.18
2022-12-04T08:01:40.710Z,101160.94
2022-12-04T08:04:14.650Z,101157.89
2022-12-04T08:06:46.991Z,101157.54
2022-12-04T08:09:19.106Z,101159.67
2022-12-04T08:11:51.248Z,101160.17
2022-12-04T08:14:23.520Z,101156.64
2022-12-04T08:16:56.075Z,101153.57
2022-12-04T08:19:28.369Z,101151.29
2022-12-04T08:22:00.486Z,101147.31
2022-12-04T08:24:32.710Z,101141.98
2022-12-04T08:27:05.188Z,101135.59
2022-12-04T08:29:37.810Z,101145.57
2022-12-04T08:32:10.060Z,101145.20
2022-12-04T08:34:42.301Z,101146.69
2022-12-04T08:37:14.493Z,101154.44
2022-12-04T08:39:46.610Z,101155.92
2022-12-04T08:42:18.752Z,101154.09
2022-12-04T08:44:50.895Z,101151.92
2022-12-04T08:47:23.344Z,101150.56
2022-12-04T08:49:55.741Z,101153.74
2022-12-04T08:52:28.065Z,101156.98
2022-12-04T08:55:00.461Z,101151.35
2022-12-04T08:57:32.553Z,101144.63
2022-12-04T09:00:05.877Z,101147.59
2022-12-04T09:02:38.251Z,101145.02
2022-12-04T09:05:10.825Z,101144.42
2022-12-04T09:07:42.971Z,101141.23
2022-12-04T09:10:16.516Z,101134.64
2022-12-04T09:12:48.641Z,101136.19
2022-12-04T09:15:21.087Z,101129.61
2022-12-04T09:17:53.568Z,101131.40
2022-12-04T09:20:26.011Z,101137.66
2022-12-04T09:23:05.541Z,101135.20
2022-12-04T09:25:39.335Z,101130.89
2022-12-04T09:28:11.450Z,101129.95
2022-12-04T09:30:43.607Z,101131.04
2022-12-04T09:33:15.786Z,101123.65
2022-12-04T09:35:47.903Z,101127.42
2022-12-04T09:38:20.035Z,101118.35
2022-12-04T09:40:59.111Z,101113.31
2022-12-04T09:43:36.543Z,101107.16
2022-12-04T09:46:16.096Z,101113.06
2022-12-04T09:48:49.739Z,101115.05
2022-12-04T09:51:25.156Z,101117.08
2022-12-04T09:54:03.674Z,101109.02
2022-12-04T09:56:36.150Z,101112.35
2022-12-04T09:59:15.510Z,101112.67
2022-12-04T10:01:50.801Z,101112.05
2022-12-04T10:04:23.285Z,101106.89
2022-12-04T10:06:59.822Z,101107.00
2022-12-04T10:09:40.187Z,101102.83
2022-12-04T10:12:24.493Z,101103.16
2022-12-04T10:15:08.765Z,101106.65
2022-12-04T10:17:55.478Z,101102.63
2022-12-04T10:20:57.363Z,101098.59
2022-12-04T10:23:39.156Z,101095.55
2022-12-04T10:26:17.193Z,101097.58
2022-12-04T10:28:55.556Z,101102.52
2022-12-04T10:31:29.240Z,101100.56
2022-12-04T10:34:06.799Z,101099.55
2022-12-04T10:36:40.964Z,101095.75
2022-12-04T10:39:24.272Z,101101.87
2022-12-04T10:42:02.581Z,101108.30
2022-12-04T10:44:34.775Z,101102.44
2022-12-04T10:47:07.562Z,101099.95
2022-12-04T10:49:40.741Z,101098.09
2022-12-04T10:52:13.864Z,101095.05
2022-12-04T10:54:50.667Z,101093.84
2022-12-04T10:57:22.860Z,101090.84
2022-12-04T10:59:57.551Z,101089.34
2022-12-04T11:02:33.063Z,101082.11
2022-12-04T11:05:24.558Z,101086.44
2022-12-04T11:07:57.977Z,101083.62
2022-12-04T11:10:35.625Z,101082.35
2022-12-04T11:13:15.960Z,101077.61
2022-12-04T11:15:50.428Z,101081.18
2022-12-04T11:18:24.395Z,101081.64
2022-12-04T11:20:59.608Z,101072.66
2022-12-04T11:23:32.238Z,101074.26
2022-12-04T11:26:06.499Z,101077.63
2022-12-04T11:28:42.444Z,101077.37
2022-12-04T11:31:22.874Z,101070.96
2022-12-04T11:33:58.168Z,101079.17
2022-12-04T11:36:30.818Z,101079.07
2022-12-04T11:39:19.631Z,101072.73
2022-12-04T11:42:02.778Z,101075.34
2022-12-04T11:44:37.072Z,101075.45
2022-12-04T11:47:19.683Z,101079.73
2022-12-04T11:50:03.758Z,101075.63
2022-12-04T11:52:51.334Z,101072.16
2022-12-04T11:55:31.187Z,101080.50
2022-12-04T11:58:20.043Z,101082.10
2022-12-04T12:01:00.734Z,101077.92
2022-12-04T12:03:39.774Z,101081.20
2022-12-04T12:06:20.765Z,101084.52
2022-12-04T12:09:16.480Z,101082.39
2022-12-04T12:11:57.988Z,101079.75
2022-12-04T12:14:42.250Z,101084.25
2022-12-04T12:17:24.004Z,101081.27
2022-12-04T12:20:11.956Z,101078.14
2022-12-04T12:22:59.022Z,101069.62
2022-12-04T12:25:40.185Z,101072.31
2022-12-04T12:28:29.575Z,101075.33
2022-12-04T12:31:16.608Z,101071.09
2022-12-04T12:33:55.440Z,101069.27
2022-12-04T12:36:32.247Z,101066.19
2022-12-04T12:39:11.578Z,101067.58
2022-12-04T12:41:49.955Z,101069.85
2022-12-04T12:44:27.127Z,101078.27
2022-12-04T12:47:05.265Z,101077.64
2022-12-04T12:49:47.079Z,101078.58
2022-12-04T12:52:28.746Z,101078.94
2022-12-04T12:55:05.319Z,101081.73
2022-12-04T12:57:40.817Z,101082.33
2022-12-04T13:00:20.047Z,101085.42
2022-12-04T13:02:59.857Z,101081.04
2022-12-04T13:05:35.956Z,101080.66
2022-12-04T13:08:18.258Z,101077.49
2022-12-04T13:10:59.493Z,101071.94
2022-12-04T13:13:35.680Z,101070.39
2022-12-04T13:16:11.151Z,101066.77
2022-12-04T13:18:47.238Z,101070.45
2022-12-04T13:21:31.284Z,101071.77
2022-12-04T13:24:43.133Z,101077.36
2022-12-04T13:27:24.212Z,101081.01
2022-12-04T13:30:11.185Z,101082.30
2022-12-04T13:33:06.586Z,101084.32
2022-12-04T13:36:00.440Z,101082.34
2022-12-04T13:38:41.452Z,101076.39
2022-12-04T13:41:18.163Z,101073.98
2022-12-04T13:43:51.868Z,101068.39
2022-12-04T13:46:33.533Z,101069.11
2022-12-04T13:49:25.293Z,101074.02
2022-12-04T13:52:00.226Z,101067.45
2022-12-04T13:54:34.679Z,101065.41
2022-12-04T13:57:24.071Z,101070.52
2022-12-04T14:00:23.294Z,101065.58
2022-12-04T14:02:58.080Z,101066.89
2022-12-04T14:05:34.769Z,101063.73
2022-12-04T14:08:21.734Z,101066.75
2022-12-04T14:11:03.509Z,101068.71
2022-12-04T14:13:47.041Z,101067.09
2022-12-04T14:16:25.867Z,101063.77
2022-12-04T14:19:01.154Z,101061.86
2022-12-04T14:21:40.540Z,101067.46
2022-12-04T14:24:29.709Z,101064.02
2022-12-04T14:27:11.590Z,101065.66
2022-12-04T14:29:51.145Z,101067.83
2022-12-04T14:32:26.592Z,101069.67
2022-12-04T14:34:59.604Z,101072.05
2022-12-04T14:37:36.308Z,101067.86
2022-12-04T14:40:20.890Z,101064.89
2022-12-04T14:42:53.474Z,101064.70
2022-12-04T14:45:36.411Z,101073.17
2022-12-04T14:48:25.475Z,101076.80
2022-12-04T14:51:07.450Z,101082.41
2022-12-04T14:53:46.836Z,101084.73
2022-12-04T14:56:32.291Z,101086.52
2022-12-04T14:59:12.601Z,101090.09
2022-12-04T15:01:47.278Z,101087.58
2022-12-04T15:04:26.536Z,101083.80
2022-12-04T15:07:00.774Z,101080.84
2022-12-04T15:09:50.688Z,101078.27
2022-12-04T15:12:37.198Z,101078.97
2022-12-04T15:15:17.586Z,101080.44
2022-12-04T15:18:01.267Z,101076.92
2022-12-04T15:20:39.196Z,101081.22
2022-12-04T15:23:17.491Z,101085.07
2022-12-04T15:25:52.055Z,101078.62
2022-12-04T15:28:29.907Z,101081.00
2022-12-04T15:31:06.954Z,101085.55
2022-12-04T15:33:41.506Z,101086.14
2022-12-04T15:36:21.106Z,101091.69
2022-12-04T15:38:55.655Z,101083.91
2022-12-04T15:41:34.172Z,101079.34
2022-12-04T15:44:25.524Z,101077.46
2022-12-04T15:46:59.359Z,101080.48
2022-12-04T15:49:33.129Z,101078.65
2022-12-04T15:52:16.331Z,101077.88
2022-12-04T15:54:53.820Z,101079.15
2022-12-04T15:57:31.012Z,101081.59
2022-12-04T16:00:05.738Z,101081.18
2022-12-04T16:02:42.315Z,101080.74
2022-12-04T16:05:27.993Z,101077.19
2022-12-04T16:08:02.254Z,101072.20
2022-12-04T16:10:36.684Z,101073.26
2022-12-04T16:13:08.825Z,101069.91
2022-12-04T16:15:43.805Z,101067.13
2022-12-04T16:18:16.796Z,101069.58
2022-12-04T16:20:49.145Z,101068.05
2022-12-04T16:23:21.870Z,101069.59
2022-12-04T16:25:54.428Z,101065.77
2022-12-04T16:28:26.749Z,101059.09
2022-12-04T16:30:59.050Z,101059.19
2022-12-04T16:33:31.516Z,101055.81
2022-12-04T16:36:03.640Z,101054.97
2022-12-04T16:38:36.076Z,101048.33
2022-12-04T16:41:08.973Z,101048.09
2022-12-04T16:43:41.295Z,101043.41
2022-12-04T16:46:16.940Z,101045.69
2022-12-04T16:48:49.138Z,101041.98
2022-12-04T16:51:25.249Z,101036.94
2022-12-04T16:53:58.099Z,101039.22
2022-12-04T16:56:30.307Z,101049.03
2022-12-04T16:59:02.573Z,101045.86
2022-12-04T17:01:39.662Z,101050.21
2022-12-04T17:04:12.313Z,101058.25
2022-12-04T17:06:44.867Z,101058.93
2022-12-04T17:09:17.164Z,101059.85
2022-12-04T17:11:49.332Z,101052.15
2022-12-04T17:14:21.880Z,101049.46
2022-12-04T17:16:55.163Z,101047.67
2022-12-04T17:19:27.378Z,101048.09
2022-12-04T17:22:01.358Z,101048.54
2022-12-04T17:24:33.837Z,101042.48
2022-12-04T17:27:07.993Z,101043.77
2022-12-04T17:29:40.484Z,101045.39
2022-12-04T17:32:13.080Z,101044.98
2022-12-04T17:34:45.192Z,101046.81
2022-12-04T17:37:17.308Z,101047.89
2022-12-04T17:39:49.885Z,101048.00
2022-12-04T17:42:22.388Z,101047.32
2022-12-04T17:44:55.218Z,101047.33
2022-12-04T17:47:27.823Z,101045.09
2022-12-04T17:49:59.970Z,101063.94
2022-12-04T17:52:32.936Z,101062.05
2022-12-04T17:55:05.391Z,101062.75
2022-12-04T17:57:37.779Z,101068.18
2022-12-04T18:00:13.029Z,101066.80
2022-12-04T18:02:46.394Z,101067.50
2022-12-04T18:05:22.552Z,101072.91
2022-12-04T18:07:54.859Z,101070.06
2022-12-04T18:10:27.017Z,101065.02
2022-12-04T18:12:59.234Z,101061.84
2022-12-04T18:15:31.376Z,101063.84
2022-12-04T18:18:03.496Z,101065.84
2022-12-04T18:20:35.815Z,101059.17
2022-12-04T18:23:08.035Z,101055.70
2022-12-04T18:25:40.205Z,101051.34
2022-12-04T18:28:12.398Z,101055.30
2022-12-04T18:30:44.925Z,101056.26
2022-12-04T18:33:19.118Z,101063.71
2022-12-04T18:35:57.784Z,101066.47
2022-12-04T18:38:32.162Z,101067.06
2022-12-04T18:41:06.962Z,101068.66
2022-12-04T18:43:41.098Z,101076.45
2022-12-04T18:46:15.940Z,101076.44
2022-12-04T18:48:49.782Z,101072.05
2022-12-04T18:51:24.824Z,101076.17
2022-12-04T18:53:59.477Z,101077.66
2022-12-04T18:56:33.487Z,101080.64
2022-12-04T18:59:08.958Z,101081.89
2022-12-04T19:01:39.989Z,101095.53
2022-12-04T19:04:14.369Z,101098.67
2022-12-04T19:06:49.147Z,101095.77
2022-12-04T19:09:40.987Z,101099.67
2022-12-04T19:12:15.911Z,101101.97
2022-12-04T19:14:48.105Z,101100.62
2022-12-04T19:17:21.141Z,101100.42
2022-12-04T19:19:53.324Z,101096.84
2022-12-04T19:22:25.557Z,101093.77
2022-12-04T19:24:57.749Z,101093.13
2022-12-04T19:27:29.994Z,101099.11
2022-12-04T19:30:02.188Z,101110.16
2022-12-04T19:32:35.695Z,101122.85
2022-12-04T19:35:08.968Z,101126.60
2022-12-04T19:37:42.162Z,101126.63
2022-12-04T19:40:17.055Z,101123.20
2022-12-04T19:42:49.250Z,101125.02
2022-12-04T19:45:21.444Z,101125.85
2022-12-04T19:47:53.869Z,101134.86
2022-12-04T19:50:26.420Z,101136.65
2022-12-04T19:52:58.538Z,101140.45
2022-12-04T19:55:31.049Z,101141.01
2022-12-04T19:58:03.260Z,101142.45
2022-12-04T20:00:35.506Z,101146.67
2022-12-04T20:03:07.636Z,101153.03
2022-12-04T20:05:40.453Z,101148.61
2022-12-04T20:10:44.100Z,101151.38
2022-12-04T20:13:16.215Z,101153.68
2022-12-04T20:15:48.305Z,101154.95
2022-12-04T20:18:20.425Z,101162.87
2022-12-04T20:20:58.940Z,101160.14
2022-12-04T20:23:32.364Z,101163.78
2022-12-04T20:26:08.213Z,101163.27
2022-12-04T20:28:40.542Z,101165.40
2022-12-04T20:31:18.320Z,101164.28
2022-12-04T20:33:52.172Z,101161.39
2022-12-04T20:36:26.619Z,101156.85
2022-12-04T20:39:00.117Z,101153.99
2022-12-04T20:41:33.439Z,101146.46
2022-12-04T20:44:08.527Z,101142.63
2022-12-04T20:46:42.628Z,101131.34
2022-12-04T20:49:21.784Z,101129.02
2022-12-04T20:51:54.860Z,101122.48
2022-12-04T20:54:26.944Z,101118.99
2022-12-04T20:56:59.023Z,101119.63
2022-12-04T20:59:31.101Z,101115.54
2022-12-04T21:02:03.352Z,101115.41
2022-12-04T21:04:38.956Z,101112.09
2022-12-04T21:07:11.300Z,101109.41
2022-12-04T21:09:44.186Z,101107.87
2022-12-04T21:12:37.400Z,101111.67
2022-12-04T21:15:31.674Z,101110.08
2022-12-04T21:18:04.629Z,101112.02
2022-12-04T21:20:37.018Z,101114.16
2022-12-04T21:23:08.984Z,101105.15
2022-12-04T21:25:41.099Z,101104.70
2022-12-04T21:28:13.318Z,101106.07
2022-12-04T21:30:45.843Z,101099.75
2022-12-04T21:33:17.964Z,101091.73
2022-12-04T21:35:50.067Z,101095.05
2022-12-04T21:38:22.246Z,101093.80
2022-12-04T21:40:54.390Z,101090.81
2022-12-04T21:43:28.033Z,101091.15
2022-12-04T21:46:07.422Z,101096.19
2022-12-04T21:48:41.058Z,101097.57
2022-12-04T21:51:32.721Z,101095.02
2022-12-04T21:54:06.028Z,101095.16
2022-12-04T21:56:38.192Z,101100.89
2022-12-04T21:59:10.805Z,101106.27
2022-12-04T22:01:43.178Z,101110.02
2022-12-04T22:04:15.625Z,101110.66
2022-12-04T22:06:47.847Z,101110.79
2022-12-04T22:09:20.009Z,101112.14
2022-12-04T22:11:52.136Z,101106.90
2022-12-04T22:14:24.324Z,101105.91
2022-12-04T22:16:56.619Z,101103.29
2022-12-04T22:19:28.761Z,101095.90
2022-12-04T22:22:00.928Z,101097.67
2022-12-04T22:24:33.224Z,101101.81
2022-12-04T22:27:05.317Z,101097.66
2022-12-04T22:29:52.774Z,101093.52
2022-12-04T22:32:24.960Z,101095.32
2022-12-04T22:34:57.102Z,101087.80
2022-12-04T22:37:29.888Z,101091.98
2022-12-04T22:40:02.108Z,101089.20
2022-12-04T22:42:34.504Z,101083.94
2022-12-04T22:45:08.055Z,101076.19
2022-12-04T22:47:40.376Z,101073.66
2022-12-04T22:50:13.353Z,101066.40
2022-12-04T22:52:45.429Z,101064.14
2022-12-04T22:55:17.664Z,101056.93
2022-12-04T22:57:49.894Z,101058.20
2022-12-04T23:00:22.583Z,101065.98
2022-12-04T23:02:55.231Z,101067.44
2022-12-04T23:05:27.482Z,101069.48
2022-12-04T23:07:59.785Z,101075.65
2022-12-04T23:10:31.967Z,101070.27
2022-12-04T23:13:04.131Z,101066.76
2022-12-04T23:15:40.601Z,101068.19
2022-12-04T23:18:12.669Z,101067.05
2022-12-04T23:20:44.809Z,101075.63
2022-12-04T23:23:16.942Z,101071.42
2022-12-04T23:25:49.337Z,101057.59
2022-12-04T23:28:21.495Z,101049.77
2022-12-04T23:30:53.672Z,101048.05
2022-12-04T23:33:25.984Z,101043.30
2022-12-04T23:36:00.431Z,101042.87
2022-12-04T23:38:33.520Z,101040.89
2022-12-04T23:41:07.531Z,101047.57
2022-12-04T23:43:40.211Z,101050.08
2022-12-04T23:46:14.952Z,101048.48
2022-12-04T23:48:48.287Z,101046.02
2022-12-04T23:51:25.906Z,101040.00
2022-12-04T23:54:09.039Z,101033.91
2022-12-04T23:56:48.088Z,101029.22
2022-12-04T23:59:22.017Z,101029.67
